Time;durP1;ratioP1;P1;durP2;ratioP2;P2;SDS_P1;SDS_P2;PMS_P1;PMS_P2;Temp;Humidity;BMP_temperature;BMP_pressure;BME280_temperature;BME280_humidity;BME280_pressure;Samples;Min_cycle;Max_cycle;Signal;HPM_P1;HPM_P2
2023/03/29 00:01:04;;;;;;;3.57;3.17;;;9.00;99.90;;;;;;5017577;28;20198;-72
2023/03/29 00:03:32;;;;;;;5.57;3.17;;;9.00;99.90;;;;;;5015268;28;20180;-70
2023/03/29 00:06:02;;;;;;;3.30;3.00;;;8.90;99.90;;;;;;5007801;28;20411;-70
2023/03/29 00:08:30;;;;;;;4.80;3.17;;;8.80;99.90;;;;;;5009761;28;20407;-69
2023/03/29 00:10:57;;;;;;;3.00;2.70;;;8.90;99.90;;;;;;5011577;28;20939;-70
2023/03/29 00:13:24;;;;;;;2.93;2.33;;;8.90;99.90;;;;;;5012449;28;20465;-71
2023/03/29 00:15:49;;;;;;;3.27;2.73;;;8.80;99.90;;;;;;5003896;28;20936;-70
2023/03/29 00:18:15;;;;;;;2.67;2.47;;;8.60;99.90;;;;;;5002370;28;20472;-68
2023/03/29 00:20:40;;;;;;;3.50;2.83;;;8.50;99.90;;;;;;5004357;28;20184;-69
2023/03/29 00:23:06;;;;;;;2.70;2.50;;;8.50;99.90;;;;;;5009025;28;20181;-69
2023/03/29 00:25:32;;;;;;;2.87;2.67;;;8.60;99.90;;;;;;5010586;28;20186;-70
2023/03/29 00:27:57;;;;;;;7.70;2.90;;;8.60;99.90;;;;;;5005900;28;20256;-67
2023/03/29 00:30:23;;;;;;;6.00;3.27;;;8.60;99.90;;;;;;5016129;28;20186;-68
2023/03/29 00:32:48;;;;;;;2.90;2.67;;;8.60;99.90;;;;;;5002731;28;20413;-68
2023/03/29 00:35:14;;;;;;;3.20;2.80;;;8.70;99.90;;;;;;5004417;28;20205;-69
2023/03/29 00:37:40;;;;;;;4.20;3.00;;;8.80;99.90;;;;;;5018061;28;20217;-68
2023/03/29 00:40:09;;;;;;;2.90;2.50;;;8.90;99.90;;;;;;5016818;28;20677;-69
2023/03/29 00:42:36;;;;;;;3.77;3.47;;;8.90;99.90;;;;;;5012592;28;20673;-69
2023/03/29 00:45:05;;;;;;;3.80;3.10;;;8.90;99.90;;;;;;5023181;28;20507;-70
2023/03/29 00:47:47;;;;;;;3.00;2.73;;;8.80;99.90;;;;;;5009946;28;20449;-68
2023/03/29 00:50:17;;;;;;;2.97;2.47;;;8.80;99.90;;;;;;5017109;28;20426;-70
2023/03/29 00:52:50;;;;;;;2.80;2.60;;;8.70;99.90;;;;;;5017621;28;20470;-70
2023/03/29 00:55:21;;;;;;;3.60;3.00;;;8.70;99.90;;;;;;5021708;28;20410;-68
2023/03/29 00:57:49;;;;;;;4.57;2.67;;;8.70;99.90;;;;;;5021402;28;20479;-68
2023/03/29 01:00:19;;;;;;;4.43;2.90;;;8.60;99.90;;;;;;5006378;28;20471;-71
2023/03/29 01:02:52;;;;;;;3.30;2.97;;;8.60;99.90;;;;;;5015943;28;20421;-68
2023/03/29 01:05:24;;;;;;;3.40;3.10;;;8.70;99.90;;;;;;5008397;28;20413;-70
2023/03/29 01:07:56;;;;;;;3.80;3.20;;;8.80;99.90;;;;;;5022462;28;20435;-71
2023/03/29 01:10:51;;;;;;;3.07;2.43;;;8.70;99.90;;;;;;5016396;28;20413;-70
2023/03/29 01:13:25;;;;;;;3.87;3.17;;;8.30;99.90;;;;;;5008491;28;20917;-68
2023/03/29 01:15:53;;;;;;;2.80;2.50;;;8.30;99.90;;;;;;5005638;28;20998;-67
2023/03/29 01:18:21;;;;;;;3.23;2.63;;;8.30;99.90;;;;;;5014715;28;20442;-69
2023/03/29 01:21:22;;;;;;;2.90;2.70;;;8.30;99.90;;;;;;5010046;28;20722;-69
2023/03/29 01:24:10;;;;;;;3.97;2.87;;;8.40;99.90;;;;;;5021855;28;20953;-70
2023/03/29 01:27:08;;;;;;;3.40;2.60;;;8.40;99.90;;;;;;5003348;28;20437;-70
2023/03/29 01:29:54;;;;;;;2.83;2.40;;;8.40;99.90;;;;;;5003883;28;20453;-70
2023/03/29 01:32:42;;;;;;;5.90;3.30;;;8.50;99.90;;;;;;5020727;28;20432;-66
2023/03/29 01:35:14;;;;;;;3.47;2.87;;;8.50;99.90;;;;;;5003596;28;20483;-71
2023/03/29 01:37:47;;;;;;;3.67;2.17;;;8.40;99.90;;;;;;5018536;28;20939;-69
2023/03/29 01:40:12;;;;;;;3.83;3.47;;;8.70;99.90;;;;;;5011032;28;20422;-69
2023/03/29 01:43:07;;;;;;;2.93;2.63;;;8.60;99.90;;;;;;5009703;28;20470;-68
2023/03/29 01:45:39;;;;;;;4.90;2.30;;;8.60;99.90;;;;;;5006182;28;20206;-69
2023/03/29 01:48:15;;;;;;;2.30;2.10;;;8.70;99.90;;;;;;5024975;28;20529;-69
2023/03/29 01:50:53;;;;;;;3.00;2.70;;;8.70;99.90;;;;;;5023202;28;20414;-70
2023/03/29 01:53:27;;;;;;;2.53;2.27;;;8.60;99.90;;;;;;5005263;28;20453;-72
2023/03/29 01:56:03;;;;;;;2.90;2.70;;;8.50;99.90;;;;;;5019593;28;20413;-69
2023/03/29 01:58:33;;;;;;;3.80;2.70;;;8.30;99.90;;;;;;5007504;28;20486;-69
2023/03/29 02:01:04;;;;;;;3.33;2.50;;;8.10;99.90;;;;;;5007195;28;20417;-70
2023/03/29 02:03:32;;;;;;;3.63;2.43;;;8.20;99.90;;;;;;5017192;28;20828;-69
2023/03/29 02:05:59;;;;;;;4.20;3.30;;;8.00;99.90;;;;;;5025369;28;20421;-70
2023/03/29 02:08:26;;;;;;;3.30;3.00;;;8.00;99.90;;;;;;5011354;28;20449;-70
2023/03/29 02:10:52;;;;;;;2.70;2.50;;;8.00;99.90;;;;;;5006714;28;20423;-67
2023/03/29 02:13:18;;;;;;;3.20;2.90;;;7.60;99.90;;;;;;5005446;28;20998;-68
2023/03/29 02:15:46;;;;;;;3.07;2.70;;;7.50;99.90;;;;;;5016646;28;20420;-70
2023/03/29 02:18:17;;;;;;;4.13;2.53;;;7.40;99.90;;;;;;5025880;28;20424;-70
2023/03/29 02:20:46;;;;;;;3.37;3.00;;;7.40;99.90;;;;;;5026034;28;20444;-67
2023/03/29 02:23:26;;;;;;;4.70;2.90;;;7.50;99.90;;;;;;5012816;28;20417;-68
2023/03/29 02:25:52;;;;;;;4.37;3.47;;;7.50;99.90;;;;;;5009917;28;20417;-66
2023/03/29 02:28:20;;;;;;;2.97;2.77;;;7.60;99.90;;;;;;5013029;28;20459;-69
2023/03/29 02:30:54;;;;;;;4.70;2.90;;;7.60;99.90;;;;;;5018735;28;20512;-69
2023/03/29 02:33:31;;;;;;;3.87;3.00;;;7.60;99.90;;;;;;5023199;28;20455;-69
2023/03/29 02:36:06;;;;;;;2.50;2.30;;;7.70;99.90;;;;;;5012058;28;20440;-68
2023/03/29 02:38:33;;;;;;;3.97;2.60;;;7.80;99.90;;;;;;5024278;28;20426;-70
2023/03/29 02:41:00;;;;;;;2.90;2.70;;;7.90;99.90;;;;;;5015648;28;20416;-69
2023/03/29 02:43:27;;;;;;;3.30;3.00;;;8.10;99.90;;;;;;5008623;28;20463;-67
2023/03/29 02:45:54;;;;;;;3.30;2.43;;;8.30;99.90;;;;;;5008701;28;20416;-68
2023/03/29 02:48:24;;;;;;;2.40;2.20;;;8.50;99.90;;;;;;5020654;28;20436;-69
2023/03/29 02:50:53;;;;;;;3.17;2.57;;;8.60;99.90;;;;;;5021344;28;20414;-69
2023/03/29 02:53:25;;;;;;;2.57;2.37;;;8.70;99.90;;;;;;5004767;28;20956;-70
2023/03/29 02:55:51;;;;;;;2.97;2.60;;;8.50;99.90;;;;;;5013494;28;20415;-67
2023/03/29 02:58:17;;;;;;;3.50;2.50;;;8.50;99.90;;;;;;5013892;28;20457;-69
2023/03/29 03:00:46;;;;;;;5.70;2.57;;;8.60;99.90;;;;;;5015753;28;20703;-70
2023/03/29 03:03:14;;;;;;;3.23;2.50;;;8.50;99.90;;;;;;5005200;28;20421;-70
2023/03/29 03:05:39;;;;;;;4.07;2.50;;;8.30;99.90;;;;;;5023705;28;20774;-70
2023/03/29 03:08:06;;;;;;;2.70;2.23;;;8.10;99.90;;;;;;5005491;28;20575;-71
2023/03/29 03:10:33;;;;;;;2.57;2.23;;;8.00;99.90;;;;;;5010050;28;20189;-70
2023/03/29 03:12:59;;;;;;;2.53;2.10;;;7.90;99.90;;;;;;5019481;28;20800;-69
2023/03/29 03:15:26;;;;;;;2.50;2.30;;;8.00;99.90;;;;;;5003930;28;20788;-70
2023/03/29 03:17:52;;;;;;;3.30;2.80;;;8.20;99.90;;;;;;5010863;28;20559;-68
2023/03/29 03:20:20;;;;;;;3.70;2.90;;;8.40;99.90;;;;;;5013451;28;20406;-70
2023/03/29 03:22:48;;;;;;;2.90;2.57;;;8.50;99.90;;;;;;5019255;28;20445;-70
2023/03/29 03:25:19;;;;;;;4.67;2.60;;;8.60;99.90;;;;;;5021483;28;20799;-70
2023/03/29 03:27:47;;;;;;;2.37;2.03;;;8.70;99.90;;;;;;5018749;28;21010;-71
2023/03/29 03:30:13;;;;;;;3.03;2.30;;;8.70;99.90;;;;;;5004443;28;20414;-70
2023/03/29 03:32:39;;;;;;;2.60;2.13;;;8.60;99.90;;;;;;5022455;28;20468;-69
2023/03/29 03:35:06;;;;;;;3.63;2.60;;;8.60;99.90;;;;;;5018081;28;20413;-69
2023/03/29 03:37:32;;;;;;;3.30;2.57;;;8.60;99.90;;;;;;5017204;28;20233;-69
2023/03/29 03:39:58;;;;;;;4.73;2.63;;;8.70;99.90;;;;;;5005906;28;20414;-70
2023/03/29 03:42:27;;;;;;;2.83;2.20;;;8.80;99.90;;;;;;5024621;28;20414;-69
2023/03/29 03:44:53;;;;;;;2.30;2.10;;;8.70;99.90;;;;;;5003603;28;20184;-69
2023/03/29 03:47:19;;;;;;;2.90;2.40;;;8.80;99.90;;;;;;5006127;28;20453;-71
2023/03/29 03:49:44;;;;;;;3.40;2.47;;;8.90;99.90;;;;;;5004579;28;20183;-70
2023/03/29 03:52:10;;;;;;;3.10;1.83;;;8.80;99.90;;;;;;5007241;28;20415;-70
2023/03/29 03:54:36;;;;;;;2.17;1.97;;;9.00;99.90;;;;;;5003703;28;20223;-69
2023/03/29 03:57:02;;;;;;;2.50;2.30;;;9.00;99.90;;;;;;5004161;28;20198;-70
2023/03/29 03:59:28;;;;;;;2.13;1.93;;;9.20;99.90;;;;;;5015976;28;20422;-69
2023/03/29 04:01:53;;;;;;;4.97;1.83;;;9.20;99.90;;;;;;5015103;28;20179;-68
2023/03/29 04:04:19;;;;;;;3.53;2.40;;;9.10;99.90;;;;;;5015242;28;20204;-69
2023/03/29 04:06:45;;;;;;;2.87;1.83;;;9.20;99.90;;;;;;5009675;28;20282;-68
2023/03/29 04:09:11;;;;;;;3.30;1.93;;;9.10;99.90;;;;;;5018945;28;20187;-71
2023/03/29 04:11:37;;;;;;;2.50;1.90;;;9.10;99.90;;;;;;5011050;28;20208;-69
2023/03/29 04:14:03;;;;;;;2.27;1.93;;;9.10;99.90;;;;;;5018912;28;20966;-66
2023/03/29 04:16:29;;;;;;;2.13;1.93;;;9.20;99.90;;;;;;5004038;28;20273;-68
2023/03/29 04:18:55;;;;;;;2.20;1.80;;;9.30;99.90;;;;;;5005487;28;20270;-69
2023/03/29 04:21:20;;;;;;;1.93;1.70;;;9.40;99.90;;;;;;5024041;28;21022;-68
2023/03/29 04:23:46;;;;;;;5.43;2.40;;;9.30;99.90;;;;;;5021340;28;20504;-68
2023/03/29 04:26:13;;;;;;;3.23;2.17;;;9.40;99.90;;;;;;5013619;28;20209;-70
2023/03/29 04:28:39;;;;;;;1.93;1.77;;;9.40;99.90;;;;;;5015588;28;20794;-70
2023/03/29 04:31:12;;;;;;;2.20;2.00;;;9.40;99.90;;;;;;5010050;28;20933;-69
2023/03/29 04:33:38;;;;;;;1.63;1.53;;;9.40;99.90;;;;;;5016679;28;20455;-68
2023/03/29 04:36:05;;;;;;;4.33;2.00;;;9.50;99.90;;;;;;5005462;28;20411;-70
2023/03/29 04:38:34;;;;;;;2.40;1.77;;;9.60;99.90;;;;;;5004128;28;20237;-70
2023/03/29 04:41:00;;;;;;;2.90;2.00;;;9.70;99.90;;;;;;5007334;28;20449;-70
2023/03/29 04:43:26;;;;;;;4.50;2.00;;;9.70;99.90;;;;;;5013153;28;20867;-71
2023/03/29 04:45:52;;;;;;;2.00;1.63;;;9.70;99.90;;;;;;5004345;28;20453;-69
2023/03/29 04:48:17;;;;;;;3.93;2.47;;;9.80;99.90;;;;;;5013346;28;20944;-69
2023/03/29 04:50:46;;;;;;;2.50;1.77;;;9.70;99.90;;;;;;5011994;28;20568;-71
2023/03/29 04:53:12;;;;;;;4.43;2.10;;;9.70;99.90;;;;;;5010209;28;20459;-68
2023/03/29 04:55:37;;;;;;;2.93;1.57;;;9.70;99.90;;;;;;5020132;28;20454;-70
2023/03/29 04:58:03;;;;;;;2.70;1.70;;;9.80;99.90;;;;;;5021366;28;20245;-68
2023/03/29 05:00:30;;;;;;;2.33;2.00;;;9.90;99.90;;;;;;5005905;28;20269;-72
2023/03/29 05:02:56;;;;;;;2.17;1.50;;;9.80;99.90;;;;;;5014143;28;20788;-69
2023/03/29 05:05:22;;;;;;;2.53;1.70;;;10.00;99.90;;;;;;5023871;28;21408;-69
2023/03/29 05:07:48;;;;;;;1.67;1.57;;;10.10;99.90;;;;;;5010919;28;20525;-71
2023/03/29 05:10:14;;;;;;;1.77;1.43;;;10.20;99.90;;;;;;5012584;28;20186;-71
2023/03/29 05:12:39;;;;;;;1.70;1.27;;;10.10;99.90;;;;;;5026633;28;20912;-71
2023/03/29 05:15:06;;;;;;;1.83;1.47;;;10.10;99.90;;;;;;5012326;28;20694;-73
2023/03/29 05:17:33;;;;;;;1.87;1.70;;;10.10;99.90;;;;;;5020539;28;20204;-71
2023/03/29 05:19:59;;;;;;;1.63;1.53;;;10.10;99.90;;;;;;5015744;28;20912;-69
2023/03/29 05:22:24;;;;;;;1.90;1.50;;;10.20;99.90;;;;;;5022470;28;20421;-70
2023/03/29 05:24:51;;;;;;;2.63;1.50;;;10.10;99.90;;;;;;5010643;28;20176;-70
2023/03/29 05:27:17;;;;;;;2.40;1.40;;;10.00;99.90;;;;;;5026891;28;20243;-70
2023/03/29 05:29:46;;;;;;;3.90;1.57;;;10.00;99.90;;;;;;5025755;28;20418;-70
2023/03/29 05:32:12;;;;;;;2.50;1.70;;;10.00;99.90;;;;;;5012338;28;20178;-70
2023/03/29 05:34:38;;;;;;;3.20;1.93;;;10.20;99.90;;;;;;5021817;28;20461;-70
2023/03/29 05:37:04;;;;;;;1.47;1.27;;;10.10;99.90;;;;;;5016640;28;20238;-68
2023/03/29 05:39:32;;;;;;;4.20;2.00;;;10.30;99.90;;;;;;5009391;28;20967;-70
2023/03/29 05:41:58;;;;;;;1.80;1.50;;;10.40;99.90;;;;;;5025475;28;20529;-70
2023/03/29 05:44:24;;;;;;;2.90;1.63;;;10.30;99.90;;;;;;5019553;28;20435;-69
2023/03/29 05:46:50;;;;;;;1.80;1.50;;;10.40;99.90;;;;;;5024696;28;20871;-70
2023/03/29 05:49:15;;;;;;;2.57;1.53;;;10.40;99.90;;;;;;5026471;28;20569;-70
2023/03/29 05:51:41;;;;;;;1.80;1.67;;;10.50;99.90;;;;;;5023211;28;20227;-70
2023/03/29 05:54:07;;;;;;;4.67;2.00;;;10.50;99.90;;;;;;5004416;28;20200;-69
2023/03/29 05:56:32;;;;;;;7.60;1.97;;;10.40;99.90;;;;;;5011710;28;20430;-71
2023/03/29 05:58:58;;;;;;;3.27;1.67;;;10.50;99.90;;;;;;5026181;28;20264;-67
2023/03/29 06:01:24;;;;;;;2.70;2.10;;;10.60;99.90;;;;;;5021654;28;20185;-67
2023/03/29 06:03:51;;;;;;;13.10;8.33;;;10.70;99.90;;;;;;5026346;28;20203;-69
2023/03/29 06:06:16;;;;;;;3.20;2.30;;;10.70;99.90;;;;;;5023964;28;20418;-71
2023/03/29 06:08:43;;;;;;;2.40;1.37;;;10.70;99.90;;;;;;5009633;28;20426;-70
2023/03/29 06:11:10;;;;;;;2.10;1.47;;;10.80;99.90;;;;;;5009086;28;20934;-68
2023/03/29 06:13:37;;;;;;;3.50;1.53;;;10.90;99.90;;;;;;5018796;28;21040;-71
2023/03/29 06:16:04;;;;;;;1.67;1.50;;;10.90;99.90;;;;;;5004899;28;20581;-69
2023/03/29 06:18:34;;;;;;;3.13;1.50;;;10.90;99.90;;;;;;5007175;28;20542;-67
2023/03/29 06:21:03;;;;;;;1.90;1.67;;;11.10;99.90;;;;;;5009360;28;20411;-68
2023/03/29 06:23:29;;;;;;;2.70;1.70;;;11.00;99.90;;;;;;5010657;28;20426;-68
2023/03/29 06:25:55;;;;;;;2.50;1.67;;;10.90;99.90;;;;;;5006346;28;20461;-69
2023/03/29 06:28:21;;;;;;;2.27;1.90;;;10.90;99.90;;;;;;5014445;28;20442;-67
2023/03/29 06:30:48;;;;;;;3.27;1.60;;;11.10;99.90;;;;;;5023864;28;20428;-70
2023/03/29 06:33:15;;;;;;;2.53;1.67;;;11.20;99.90;;;;;;5023247;28;20465;-69
2023/03/29 06:35:43;;;;;;;3.70;1.50;;;11.30;99.90;;;;;;5008828;28;20807;-67
2023/03/29 06:38:09;;;;;;;3.40;1.70;;;11.20;99.90;;;;;;5013772;28;20502;-70
2023/03/29 06:40:36;;;;;;;3.90;2.40;;;11.20;99.90;;;;;;5008090;28;20450;-68
2023/03/29 06:43:02;;;;;;;1.90;1.80;;;11.40;99.90;;;;;;5008871;28;20424;-68
2023/03/29 06:45:31;;;;;;;5.43;2.87;;;11.60;99.90;;;;;;5007995;28;21008;-69
2023/03/29 06:47:56;;;;;;;5.20;2.10;;;11.90;99.90;;;;;;5011436;28;20446;-70
2023/03/29 06:50:23;;;;;;;2.87;1.90;;;12.10;99.90;;;;;;5025637;28;20910;-69
2023/03/29 06:52:49;;;;;;;3.87;1.87;;;12.10;99.90;;;;;;5022821;28;20203;-70
2023/03/29 06:55:16;;;;;;;4.73;2.07;;;12.30;99.90;;;;;;5011669;28;20493;-69
2023/03/29 06:57:42;;;;;;;3.80;1.90;;;12.40;99.90;;;;;;5008539;28;20448;-69
2023/03/29 07:00:26;;;;;;;4.57;1.80;;;12.60;99.90;;;;;;5008671;28;20417;-69
2023/03/29 07:02:53;;;;;;;2.33;1.60;;;12.70;99.90;;;;;;5008463;28;20464;-66
2023/03/29 07:05:19;;;;;;;2.80;1.93;;;12.80;99.90;;;;;;5008909;28;21082;-69
2023/03/29 07:08:10;;;;;;;2.10;1.50;;;12.50;99.90;;;;;;5005688;28;20435;-71
2023/03/29 07:10:42;;;;;;;2.63;1.77;;;12.60;99.90;;;;;;5005547;28;20553;-68
2023/03/29 07:13:12;;;;;;;4.90;2.27;;;12.50;99.90;;;;;;5007003;28;20453;-70
2023/03/29 07:15:38;;;;;;;3.23;1.77;;;12.40;99.90;;;;;;5007608;28;20508;-70
2023/03/29 07:18:04;;;;;;;3.77;2.07;;;12.30;99.90;;;;;;5010521;28;20439;-70
2023/03/29 07:20:30;;;;;;;2.50;1.60;;;12.40;99.90;;;;;;5005823;28;20420;-71
2023/03/29 07:22:56;;;;;;;2.60;1.33;;;12.50;99.90;;;;;;5024820;28;20449;-69
2023/03/29 07:25:23;;;;;;;3.20;1.70;;;12.70;99.90;;;;;;5024457;28;20426;-69
2023/03/29 07:27:50;;;;;;;3.07;2.47;;;12.80;99.90;;;;;;5021044;28;20880;-70
2023/03/29 07:30:23;;;;;;;2.43;1.90;;;12.80;99.90;;;;;;5025127;28;20895;-71
2023/03/29 07:32:49;;;;;;;3.57;2.13;;;12.80;99.90;;;;;;5024232;28;20857;-71
2023/03/29 07:35:16;;;;;;;3.70;2.07;;;12.90;99.90;;;;;;5024018;28;20912;-71
2023/03/29 07:37:43;;;;;;;6.43;1.73;;;13.00;99.90;;;;;;5024315;28;20760;-68
2023/03/29 07:40:15;;;;;;;3.43;1.70;;;13.20;99.90;;;;;;5023329;28;20969;-71
2023/03/29 07:42:45;;;;;;;4.30;2.00;;;13.30;99.90;;;;;;5008182;28;20410;-71
2023/03/29 07:45:12;;;;;;;3.57;1.93;;;13.50;99.90;;;;;;5003759;28;20473;-73
2023/03/29 07:47:38;;;;;;;3.30;1.80;;;13.50;99.90;;;;;;5004330;28;20464;-72
2023/03/29 07:50:06;;;;;;;2.70;1.93;;;13.80;99.90;;;;;;5003048;28;20769;-69
2023/03/29 07:52:31;;;;;;;2.43;1.70;;;13.90;99.90;;;;;;5011185;28;20596;-70
2023/03/29 07:54:57;;;;;;;3.17;1.93;;;13.90;99.90;;;;;;5000405;28;20418;-69
2023/03/29 07:57:25;;;;;;;3.03;1.70;;;13.90;99.90;;;;;;4997756;28;20618;-69
2023/03/29 07:59:54;;;;;;;7.80;1.80;;;13.80;99.60;;;;;;4998769;28;20174;-70
2023/03/29 08:02:20;;;;;;;2.87;2.03;;;13.70;99.50;;;;;;4998333;28;20932;-70
2023/03/29 08:04:45;;;;;;;3.33;1.53;;;13.60;99.90;;;;;;4996378;28;20470;-69
2023/03/29 08:07:12;;;;;;;3.13;2.07;;;13.60;99.90;;;;;;4998394;28;20789;-70
2023/03/29 08:09:37;;;;;;;4.03;1.83;;;13.70;99.90;;;;;;4998734;28;20724;-69
2023/03/29 08:12:03;;;;;;;5.50;2.00;;;13.80;99.90;;;;;;4999196;28;20432;-69
2023/03/29 08:14:30;;;;;;;2.33;1.70;;;14.00;99.90;;;;;;4997900;28;20597;-70
2023/03/29 08:16:55;;;;;;;3.83;2.13;;;14.10;99.10;;;;;;4999891;28;20263;-71
2023/03/29 08:19:21;;;;;;;1.80;1.63;;;14.10;98.80;;;;;;5000220;28;20830;-70
2023/03/29 08:21:47;;;;;;;3.83;1.73;;;14.20;98.90;;;;;;4998941;28;20174;-69
2023/03/29 08:24:13;;;;;;;8.93;2.57;;;14.50;99.30;;;;;;4998993;28;20265;-72
2023/03/29 08:26:39;;;;;;;3.43;1.50;;;14.40;99.60;;;;;;4997104;28;20990;-69
2023/03/29 08:29:05;;;;;;;2.10;1.60;;;14.40;98.60;;;;;;4998567;28;20174;-69
2023/03/29 08:31:31;;;;;;;3.10;1.70;;;14.50;98.60;;;;;;4998748;28;20176;-69
2023/03/29 08:33:56;;;;;;;2.00;1.57;;;14.60;98.60;;;;;;5000807;28;20819;-69
2023/03/29 08:36:22;;;;;;;2.70;1.80;;;14.30;98.30;;;;;;4999678;28;20280;-69
2023/03/29 08:38:49;;;;;;;2.27;1.80;;;14.30;98.50;;;;;;4999605;28;20174;-69
2023/03/29 08:41:53;;;;;;;2.90;2.60;;;14.40;98.50;;;;;;4997988;28;20222;-70
2023/03/29 08:44:48;;;;;;;2.17;1.63;;;14.20;98.90;;;;;;4999079;28;20414;-70
2023/03/29 08:47:35;;;;;;;2.63;1.47;;;14.20;99.50;;;;;;5001625;28;20881;-73
2023/03/29 08:50:01;;;;;;;2.90;1.80;;;14.00;98.50;;;;;;5002150;28;20428;-72
2023/03/29 08:52:36;;;;;;;2.47;1.70;;;13.70;98.50;;;;;;5002804;28;20408;-72
2023/03/29 08:55:07;;;;;;;2.60;1.70;;;13.60;98.90;;;;;;5001368;28;20499;-71
2023/03/29 08:57:45;;;;;;;2.60;1.87;;;13.60;99.70;;;;;;5002387;28;20675;-71
2023/03/29 09:00:24;;;;;;;2.70;1.60;;;13.70;98.90;;;;;;5000523;28;20416;-71
2023/03/29 09:02:52;;;;;;;2.30;1.77;;;13.80;99.00;;;;;;5002276;28;20776;-71
2023/03/29 09:05:28;;;;;;;4.07;1.80;;;13.80;98.90;;;;;;5001851;28;20420;-70
2023/03/29 09:07:53;;;;;;;2.27;1.73;;;13.90;98.70;;;;;;5004367;28;20458;-71
2023/03/29 09:10:25;;;;;;;1.73;1.47;;;14.10;98.40;;;;;;5008780;28;20413;-69
2023/03/29 09:13:11;;;;;;;2.03;1.50;;;14.40;97.90;;;;;;5006551;28;20854;-70
2023/03/29 09:15:59;;;;;;;2.03;1.67;;;14.20;97.40;;;;;;5016675;28;20444;-70
2023/03/29 09:18:54;;;;;;;2.40;1.77;;;14.30;98.10;;;;;;5003740;28;21036;-70
2023/03/29 09:21:49;;;;;;;2.40;1.60;;;14.40;98.40;;;;;;5002376;28;20686;-68
2023/03/29 09:24:44;;;;;;;3.97;1.50;;;14.70;97.20;;;;;;5005093;28;20767;-68
2023/03/29 09:27:23;;;;;;;2.50;1.67;;;15.10;96.90;;;;;;5002278;28;20438;-69
2023/03/29 09:29:51;;;;;;;1.83;1.40;;;15.10;96.30;;;;;;4999677;28;20951;-71
2023/03/29 09:32:21;;;;;;;2.30;1.80;;;15.10;95.60;;;;;;5001267;28;20438;-70
2023/03/29 09:35:20;;;;;;;2.00;1.50;;;14.90;95.60;;;;;;5001052;28;20507;-71
2023/03/29 09:37:49;;;;;;;2.80;2.00;;;14.70;95.60;;;;;;5001843;28;20450;-72
2023/03/29 09:40:31;;;;;;;2.00;1.80;;;14.90;96.30;;;;;;4999943;28;20825;-70
2023/03/29 09:42:59;;;;;;;1.43;1.33;;;15.20;95.70;;;;;;5001222;28;20841;-71
2023/03/29 09:45:25;;;;;;;4.20;1.70;;;15.30;96.20;;;;;;5005315;28;21062;-71
2023/03/29 09:47:57;;;;;;;3.10;1.33;;;15.30;95.50;;;;;;5003339;28;20442;-72
2023/03/29 09:50:35;;;;;;;2.70;1.77;;;15.70;95.60;;;;;;5001488;28;20447;-69
2023/03/29 09:53:01;;;;;;;2.67;1.67;;;15.70;94.40;;;;;;5005265;28;20450;-69
2023/03/29 09:55:31;;;;;;;2.13;1.93;;;15.60;94.00;;;;;;5006799;28;20996;-69
2023/03/29 09:58:01;;;;;;;2.30;1.70;;;15.90;94.10;;;;;;5007922;28;20441;-73
2023/03/29 10:00:27;;;;;;;4.27;2.40;;;16.10;94.00;;;;;;5015273;28;20471;-72
2023/03/29 10:02:55;;;;;;;1.53;1.40;;;16.20;94.30;;;;;;5026009;28;20508;-70
2023/03/29 10:05:24;;;;;;;3.10;1.90;;;16.20;92.30;;;;;;5026134;28;20171;-69
2023/03/29 10:07:58;;;;;;;2.90;1.90;;;16.40;92.80;;;;;;5014363;28;20498;-70
2023/03/29 10:10:29;;;;;;;1.90;1.60;;;16.70;93.00;;;;;;5008096;28;20410;-69
2023/03/29 10:13:11;;;;;;;2.10;1.60;;;16.80;92.80;;;;;;5023303;28;20485;-74
2023/03/29 10:15:36;;;;;;;3.87;1.70;;;17.00;91.70;;;;;;5008611;28;20434;-74
2023/03/29 10:18:09;;;;;;;2.90;1.80;;;17.20;92.10;;;;;;5019063;28;20445;-73
2023/03/29 10:20:37;;;;;;;2.37;1.70;;;17.40;91.50;;;;;;5014435;28;20176;-73
2023/03/29 10:23:06;;;;;;;2.67;1.80;;;17.60;90.90;;;;;;5007548;28;20447;-73
2023/03/29 10:25:36;;;;;;;4.60;1.87;;;17.40;90.20;;;;;;5016337;28;20471;-72
2023/03/29 10:28:17;;;;;;;1.83;1.63;;;17.20;91.10;;;;;;5006569;28;20449;-74
2023/03/29 10:30:46;;;;;;;2.50;1.80;;;17.40;90.20;;;;;;5005315;28;20419;-72
2023/03/29 10:33:17;;;;;;;4.43;1.90;;;18.00;89.20;;;;;;5005110;28;20545;-72
2023/03/29 10:35:43;;;;;;;3.70;1.73;;;17.70;88.10;;;;;;5011833;28;20570;-72
2023/03/29 10:38:16;;;;;;;3.27;1.80;;;17.60;88.50;;;;;;5017960;28;20994;-72
2023/03/29 10:40:47;;;;;;;3.70;2.00;;;17.80;88.30;;;;;;5024606;28;20423;-71
2023/03/29 10:43:19;;;;;;;2.83;1.70;;;18.00;87.50;;;;;;5021500;28;20427;-74
2023/03/29 10:45:48;;;;;;;2.80;1.70;;;18.10;87.90;;;;;;5014023;28;20795;-73
2023/03/29 10:48:16;;;;;;;2.67;1.60;;;18.70;86.70;;;;;;5027865;28;20492;-72
2023/03/29 10:50:46;;;;;;;3.60;1.90;;;18.60;84.80;;;;;;5025913;28;20441;-73
2023/03/29 10:53:18;;;;;;;2.80;1.93;;;18.70;84.10;;;;;;5026586;28;20720;-71
2023/03/29 10:56:08;;;;;;;2.23;1.97;;;18.90;88.20;;;;;;5025340;28;20448;-73
2023/03/29 10:58:47;;;;;;;2.00;1.57;;;19.30;81.70;;;;;;5006089;28;20403;-72
2023/03/29 11:01:25;;;;;;;3.50;1.83;;;19.30;80.90;;;;;;5017166;28;20409;-74
2023/03/29 11:04:06;;;;;;;3.37;2.03;;;19.70;79.80;;;;;;5025955;28;20441;-72
2023/03/29 11:06:35;;;;;;;2.90;1.73;;;19.70;79.10;;;;;;5016253;28;20442;-73
2023/03/29 11:09:16;;;;;;;1.77;1.40;;;19.40;79.40;;;;;;5005160;28;20410;-73
2023/03/29 11:12:09;;;;;;;1.70;1.50;;;19.50;81.40;;;;;;5007625;28;20431;-73
2023/03/29 11:14:53;;;;;;;2.57;2.37;;;19.60;80.90;;;;;;5017403;28;21044;-71
2023/03/29 11:17:27;;;;;;;2.30;1.67;;;19.60;79.60;;;;;;5004296;28;20492;-73
2023/03/29 11:20:11;;;;;;;6.40;2.20;;;20.20;80.50;;;;;;5009308;28;20422;-72
2023/03/29 11:22:46;;;;;;;2.70;2.10;;;21.30;75.70;;;;;;5007457;28;20430;-73
2023/03/29 11:25:31;;;;;;;2.67;1.77;;;21.90;74.10;;;;;;5009903;28;21467;-75
2023/03/29 11:28:35;;;;;;;4.17;1.70;;;23.00;72.70;;;;;;5012930;28;20450;-74
2023/03/29 11:31:12;;;;;;;3.37;2.23;;;24.10;68.10;;;;;;4965704;28;20448;-72
2023/03/29 11:33:57;;;;;;;3.03;2.20;;;25.30;65.20;;;;;;5016416;28;20458;-74
2023/03/29 11:36:44;;;;;;;3.23;1.50;;;24.50;63.20;;;;;;5004742;28;20442;-73
2023/03/29 11:39:48;;;;;;;2.53;2.03;;;23.90;64.00;;;;;;5004288;28;20387;-73
2023/03/29 11:42:20;;;;;;;2.87;1.63;;;23.00;68.30;;;;;;4997922;28;20414;-74
2023/03/29 11:44:48;;;;;;;2.50;1.90;;;22.20;67.30;;;;;;5024468;28;20410;-71
2023/03/29 11:47:21;;;;;;;2.17;1.73;;;22.00;67.20;;;;;;5022853;28;21420;-73
2023/03/29 11:49:54;;;;;;;5.90;1.90;;;21.70;67.60;;;;;;5018751;28;20514;-72
2023/03/29 11:52:23;;;;;;;2.33;1.60;;;21.30;68.10;;;;;;5005215;28;20417;-74
2023/03/29 11:54:52;;;;;;;4.83;1.90;;;20.80;70.50;;;;;;5007321;28;20514;-72
2023/03/29 11:57:27;;;;;;;3.20;1.60;;;20.50;70.40;;;;;;5007486;28;20911;-73
2023/03/29 11:59:56;;;;;;;4.07;1.63;;;20.30;72.80;;;;;;5012448;28;20414;-71
2023/03/29 12:02:39;;;;;;;3.23;1.70;;;20.20;70.70;;;;;;5006088;28;20968;-72
2023/03/29 12:05:21;;;;;;;1.93;1.73;;;20.30;70.80;;;;;;5003856;28;20496;-70
2023/03/29 12:08:03;;;;;;;3.13;1.43;;;20.60;70.50;;;;;;5007992;28;21039;-74
2023/03/29 12:10:42;;;;;;;1.93;1.50;;;21.60;68.80;;;;;;5019909;28;20480;-74
2023/03/29 12:13:23;;;;;;;2.93;1.57;;;23.30;68.20;;;;;;5023993;28;20541;-74
2023/03/29 12:16:06;;;;;;;2.60;1.80;;;23.20;62.90;;;;;;5009856;28;20505;-72
2023/03/29 12:18:39;;;;;;;2.80;1.57;;;22.70;61.10;;;;;;5006761;28;20403;-73
2023/03/29 12:21:13;;;;;;;1.30;1.17;;;22.10;62.80;;;;;;5023935;28;20416;-74
2023/03/29 12:23:41;;;;;;;3.50;1.73;;;21.40;63.00;;;;;;5023011;28;20844;-75
2023/03/29 12:26:32;;;;;;;2.63;1.50;;;21.10;65.90;;;;;;5022340;28;20414;-72
2023/03/29 12:29:04;;;;;;;3.57;1.20;;;20.70;65.40;;;;;;5008760;28;20407;-74
2023/03/29 12:31:41;;;;;;;1.83;1.20;;;19.90;66.20;;;;;;5016259;28;20429;-72
2023/03/29 12:34:44;;;;;;;5.13;1.50;;;19.70;69.80;;;;;;5012733;28;20454;-74
2023/03/29 12:37:20;;;;;;;3.20;1.37;;;19.30;70.90;;;;;;5005220;28;20832;-73
2023/03/29 12:39:48;;;;;;;3.60;1.20;;;19.10;71.20;;;;;;5010371;28;20817;-72
2023/03/29 12:42:21;;;;;;;3.20;1.60;;;18.90;71.60;;;;;;5005709;28;20995;-74
2023/03/29 12:44:58;;;;;;;2.07;1.43;;;19.00;72.70;;;;;;5004113;28;20516;-74
2023/03/29 12:47:41;;;;;;;5.07;1.80;;;19.10;71.30;;;;;;5008157;28;20438;-72
2023/03/29 12:50:36;;;;;;;4.67;1.70;;;18.90;70.60;;;;;;5019111;28;20402;-73
2023/03/29 12:53:36;;;;;;;2.43;1.20;;;18.70;71.00;;;;;;5036522;23;20495;-74
2023/03/29 12:56:02;;;;;;;3.20;1.97;;;18.40;71.50;;;;;;4987602;28;20787;-71
2023/03/29 12:58:41;;;;;;;2.60;1.57;;;18.30;73.60;;;;;;5004087;28;20410;-72
2023/03/29 13:01:28;;;;;;;2.40;1.43;;;18.20;74.90;;;;;;5003538;28;20486;-73
2023/03/29 13:04:35;;;;;;;1.93;1.60;;;18.20;77.70;;;;;;5003058;28;20530;-71
2023/03/29 13:07:02;;;;;;;2.37;1.47;;;18.10;78.40;;;;;;5002782;28;21048;-71
2023/03/29 13:09:48;;;;;;;3.10;1.70;;;18.30;78.30;;;;;;5002560;28;20865;-71
2023/03/29 13:12:14;;;;;;;2.87;1.60;;;18.30;77.40;;;;;;5002979;28;20418;-71